Time;durP1;ratioP1;P1;durP2;ratioP2;P2;SDS_P1;SDS_P2;PMS_P1;PMS_P2;Temp;Humidity;BMP_temperature;BMP_pressure;BME280_temperature;BME280_humidity;BME280_pressure;Samples;Min_cycle;Max_cycle;Signal;HPM_P1;HPM_P2
2022/01/14 00:01:04;;;;;;;40.28;18.33;;;6.00;99.90;;;;;;5087634;28;20047;-70
2022/01/14 00:03:30;;;;;;;39.08;18.27;;;6.00;99.90;;;;;;5091321;28;20038;-70
2022/01/14 00:05:56;;;;;;;37.53;18.48;;;6.00;99.90;;;;;;5087766;28;20097;-70
2022/01/14 00:08:21;;;;;;;33.45;17.88;;;6.00;99.90;;;;;;5093121;28;20651;-70
2022/01/14 00:10:50;;;;;;;34.17;18.27;;;6.00;99.90;;;;;;5073768;28;20075;-70
2022/01/14 00:16:04;;;;;;;35.38;17.35;;;6.00;99.90;;;;;;5088697;28;20028;-70
2022/01/14 00:18:30;;;;;;;29.55;17.77;;;6.00;99.90;;;;;;5092362;28;20055;-70
2022/01/14 00:20:56;;;;;;;40.25;18.85;;;6.00;99.90;;;;;;5091437;28;20040;-70
2022/01/14 00:23:29;;;;;;;36.40;18.98;;;6.00;99.90;;;;;;5092804;28;20039;-70
2022/01/14 00:31:42;;;;;;;34.85;17.85;;;6.00;99.90;;;;;;5091922;28;20123;-70
2022/01/14 00:34:10;;;;;;;38.53;18.77;;;6.00;99.90;;;;;;5075931;28;20086;-70
2022/01/14 00:36:35;;;;;;;33.65;17.08;;;6.00;99.90;;;;;;5087427;28;20042;-70
2022/01/14 00:39:01;;;;;;;31.00;17.52;;;6.00;99.90;;;;;;5086394;28;20031;-70
2022/01/14 00:41:27;;;;;;;39.30;19.27;;;6.00;99.90;;;;;;5089887;28;20048;-70
2022/01/14 00:43:59;;;;;;;34.78;17.95;;;6.00;99.90;;;;;;5092964;28;20035;-70
2022/01/14 00:46:25;;;;;;;31.88;16.17;;;6.20;99.90;;;;;;5095202;28;20533;-70
2022/01/14 00:48:51;;;;;;;31.13;16.80;;;6.00;99.90;;;;;;5071839;28;20067;-70
2022/01/14 00:51:16;;;;;;;30.15;16.00;;;6.70;99.90;;;;;;5087521;28;20040;-70
2022/01/14 00:53:42;;;;;;;33.80;17.88;;;5.90;99.90;;;;;;5090692;28;20032;-70
2022/01/14 00:56:21;;;;;;;29.60;17.40;;;5.90;99.90;;;;;;5090543;28;20123;-70
2022/01/14 01:01:31;;;;;;;30.90;16.00;;;5.90;99.90;;;;;;5077710;28;20101;-70
2022/01/14 01:03:57;;;;;;;31.10;16.88;;;5.90;99.90;;;;;;5069985;28;20630;-70
2022/01/14 01:06:23;;;;;;;28.42;16.67;;;6.10;99.90;;;;;;5084863;28;20126;-70
2022/01/14 01:08:51;;;;;;;35.65;16.80;;;6.60;99.90;;;;;;5087443;28;20075;-70
2022/01/14 01:11:26;;;;;;;35.33;17.08;;;6.80;99.90;;;;;;5054235;28;20175;-70
2022/01/14 01:14:01;;;;;;;31.10;16.50;;;5.90;99.90;;;;;;5089098;28;20057;-70
2022/01/14 01:16:27;;;;;;;28.23;14.95;;;5.90;99.90;;;;;;5069926;28;20036;-70
2022/01/14 01:18:53;;;;;;;30.77;16.75;;;5.90;99.90;;;;;;5085317;28;20049;-70
2022/01/14 01:21:19;;;;;;;29.17;16.02;;;6.20;99.90;;;;;;5088768;28;20039;-70
2022/01/14 01:23:44;;;;;;;29.52;15.60;;;5.90;99.90;;;;;;5086588;28;20043;-70
2022/01/14 01:26:19;;;;;;;30.27;15.43;;;5.90;99.90;;;;;;5080107;28;20368;-70
2022/01/14 01:31:35;;;;;;;29.55;16.67;;;5.90;99.90;;;;;;5087930;28;20386;-70
2022/01/14 01:34:19;;;;;;;35.85;17.77;;;5.90;99.90;;;;;;5086322;28;20040;-70
2022/01/14 01:36:47;;;;;;;32.17;16.92;;;5.90;99.90;;;;;;5081797;28;20068;-70
2022/01/14 01:39:17;;;;;;;29.45;15.65;;;5.90;99.90;;;;;;5083582;28;20043;-70
2022/01/14 01:41:45;;;;;;;33.17;15.52;;;5.90;99.90;;;;;;5084341;28;20032;-70
2022/01/14 01:44:13;;;;;;;32.67;17.25;;;5.90;99.90;;;;;;5086170;28;20458;-70
2022/01/14 01:46:40;;;;;;;30.92;17.30;;;5.80;99.90;;;;;;5070992;28;20071;-70
2022/01/14 01:49:08;;;;;;;30.92;17.63;;;6.20;99.90;;;;;;5088772;28;20048;-70
2022/01/14 01:51:34;;;;;;;25.73;16.95;;;5.80;99.90;;;;;;5068450;28;20032;-70
2022/01/14 01:54:01;;;;;;;29.67;17.65;;;6.00;99.90;;;;;;5088509;28;20038;-70
2022/01/14 01:56:26;;;;;;;35.30;19.55;;;5.80;99.90;;;;;;5089439;28;20043;-70
2022/01/14 01:58:56;;;;;;;31.90;17.67;;;5.80;99.90;;;;;;5087553;28;20064;-70
2022/01/14 02:01:24;;;;;;;31.98;18.20;;;6.30;99.90;;;;;;5090160;28;20031;-70
2022/01/14 02:03:50;;;;;;;33.42;18.00;;;5.80;99.90;;;;;;5080045;28;20460;-70
2022/01/14 02:06:17;;;;;;;37.85;18.27;;;5.80;99.90;;;;;;5073806;28;20035;-71
2022/01/14 02:08:43;;;;;;;31.10;18.25;;;6.60;99.90;;;;;;5086655;28;20035;-71
2022/01/14 02:11:08;;;;;;;34.53;19.30;;;5.80;99.90;;;;;;5085363;28;20663;-71
2022/01/14 02:13:35;;;;;;;32.20;18.33;;;5.80;99.90;;;;;;5082751;28;20043;-71
2022/01/14 02:24:32;;;;;;;30.88;15.27;;;5.80;99.90;;;;;;5089114;28;20135;-70
2022/01/14 02:26:58;;;;;;;32.83;17.50;;;5.80;99.90;;;;;;5083793;28;20039;-70
2022/01/14 02:29:24;;;;;;;27.40;17.77;;;5.90;99.90;;;;;;5058929;28;20041;-70
2022/01/14 02:31:49;;;;;;;28.52;16.52;;;5.80;99.90;;;;;;5073274;28;20114;-70
2022/01/14 02:34:16;;;;;;;29.90;18.23;;;5.90;99.90;;;;;;5082918;28;20039;-70
2022/01/14 02:36:43;;;;;;;39.95;18.40;;;5.90;99.90;;;;;;5086172;28;20036;-70
2022/01/14 02:39:11;;;;;;;32.33;19.00;;;6.30;99.90;;;;;;5068855;28;20039;-70
2022/01/14 02:41:39;;;;;;;37.63;20.95;;;5.90;99.90;;;;;;5088940;28;20058;-70
2022/01/14 02:44:11;;;;;;;31.52;17.33;;;5.90;99.90;;;;;;5050486;28;20127;-70
2022/01/14 02:46:41;;;;;;;35.35;20.08;;;6.30;99.90;;;;;;5070881;28;20047;-70
2022/01/14 02:49:07;;;;;;;33.72;17.08;;;6.50;99.90;;;;;;5073419;28;20535;-70
2022/01/14 02:51:33;;;;;;;34.78;17.83;;;5.90;99.90;;;;;;5075550;28;20114;-70
2022/01/14 02:54:15;;;;;;;39.50;18.90;;;5.90;99.90;;;;;;5097263;28;20039;-70
2022/01/14 02:56:47;;;;;;;35.90;18.85;;;5.90;99.90;;;;;;5077110;28;20606;-70
2022/01/14 02:59:16;;;;;;;40.22;18.95;;;5.90;99.90;;;;;;5093926;28;20036;-70
2022/01/14 03:01:45;;;;;;;37.30;17.98;;;6.00;99.90;;;;;;5078963;28;20027;-70
2022/01/14 03:04:14;;;;;;;36.35;19.13;;;5.90;99.90;;;;;;5093774;28;20040;-70
2022/01/14 03:06:41;;;;;;;32.75;19.60;;;5.90;99.90;;;;;;5110864;28;20063;-70
2022/01/14 03:09:07;;;;;;;40.08;19.40;;;5.90;99.90;;;;;;5096722;28;20055;-70
2022/01/14 03:11:39;;;;;;;42.13;20.05;;;6.50;99.90;;;;;;5092479;28;20035;-70
2022/01/14 03:14:05;;;;;;;36.47;20.20;;;6.00;99.90;;;;;;5095318;28;20047;-70
2022/01/14 03:16:38;;;;;;;38.50;21.10;;;5.90;99.90;;;;;;5093777;28;20048;-70
2022/01/14 03:19:08;;;;;;;36.47;18.73;;;5.90;99.90;;;;;;5086845;28;20050;-70
2022/01/14 03:21:40;;;;;;;35.45;20.13;;;5.90;99.90;;;;;;5092970;28;20043;-70
2022/01/14 03:24:18;;;;;;;36.42;19.27;;;5.90;99.90;;;;;;5091803;28;20044;-70
2022/01/14 03:26:47;;;;;;;35.38;19.70;;;6.00;99.90;;;;;;5096340;28;20390;-70
2022/01/14 03:29:15;;;;;;;36.13;19.27;;;6.30;99.90;;;;;;5096821;28;20054;-70
2022/01/14 03:31:42;;;;;;;39.22;21.15;;;6.60;99.90;;;;;;5091333;28;20032;-70
2022/01/14 03:34:08;;;;;;;35.88;19.48;;;6.00;99.90;;;;;;5097905;28;20043;-70
2022/01/14 03:36:34;;;;;;;42.65;21.02;;;6.00;99.90;;;;;;5092023;28;20040;-70
2022/01/14 03:38:59;;;;;;;35.28;19.48;;;6.00;99.90;;;;;;5078958;28;20044;-70
2022/01/14 03:41:25;;;;;;;35.65;19.50;;;6.00;99.90;;;;;;5075085;28;20059;-70
2022/01/14 03:43:51;;;;;;;42.67;21.00;;;6.00;99.90;;;;;;5095722;28;20489;-70
2022/01/14 03:46:17;;;;;;;33.78;17.27;;;6.00;99.90;;;;;;5089115;28;20058;-70
2022/01/14 03:48:42;;;;;;;35.03;20.85;;;6.00;99.90;;;;;;5080101;28;20464;-70
2022/01/14 03:51:08;;;;;;;39.60;20.15;;;6.00;99.90;;;;;;5089879;28;20094;-70
2022/01/14 03:53:34;;;;;;;43.47;19.70;;;6.10;99.90;;;;;;5096789;28;20058;-70
2022/01/14 03:56:00;;;;;;;34.75;18.52;;;6.10;99.90;;;;;;5077506;28;20128;-70
2022/01/14 03:58:27;;;;;;;43.63;20.02;;;6.10;99.90;;;;;;5074578;28;20060;-70
2022/01/14 04:01:01;;;;;;;33.80;20.48;;;6.10;99.90;;;;;;5091613;28;20101;-70
2022/01/14 04:03:27;;;;;;;41.05;20.00;;;6.10;99.90;;;;;;5060440;28;20050;-70
2022/01/14 04:05:52;;;;;;;34.95;18.95;;;6.10;99.90;;;;;;5092697;28;20047;-70
2022/01/14 04:08:18;;;;;;;41.90;19.75;;;6.10;99.90;;;;;;5064472;28;20133;-70
2022/01/14 04:10:45;;;;;;;39.60;19.05;;;6.20;99.90;;;;;;5087592;28;20040;-70
2022/01/14 04:13:18;;;;;;;28.70;18.88;;;6.10;99.90;;;;;;5041284;28;20039;-70
2022/01/14 04:15:46;;;;;;;41.63;20.27;;;6.20;99.90;;;;;;5090253;28;20488;-70
2022/01/14 04:18:17;;;;;;;31.33;16.25;;;6.70;99.90;;;;;;5090668;27;20124;-70
2022/01/14 04:20:47;;;;;;;37.83;20.90;;;6.20;99.90;;;;;;5084509;28;20058;-70
2022/01/14 04:23:13;;;;;;;33.37;17.43;;;6.20;99.90;;;;;;5089732;28;20550;-70
2022/01/14 04:25:40;;;;;;;37.88;19.08;;;6.20;99.90;;;;;;5089154;28;20301;-70
2022/01/14 04:28:07;;;;;;;37.17;20.15;;;6.20;99.90;;;;;;5091140;28;20062;-70
2022/01/14 04:30:33;;;;;;;32.40;18.35;;;6.20;99.90;;;;;;5087521;28;20104;-70
2022/01/14 04:32:59;;;;;;;33.13;19.13;;;6.20;99.90;;;;;;5070543;28;20634;-70
2022/01/14 04:35:26;;;;;;;32.80;18.80;;;6.30;99.90;;;;;;5069708;28;20092;-70
2022/01/14 04:37:53;;;;;;;34.10;18.25;;;6.50;99.90;;;;;;5087025;28;20122;-70
2022/01/14 04:40:19;;;;;;;29.92;18.00;;;6.20;99.90;;;;;;5072182;28;20032;-70
2022/01/14 04:42:45;;;;;;;30.02;18.63;;;6.20;99.90;;;;;;5084186;28;20046;-70
2022/01/14 04:48:03;;;;;;;30.40;17.08;;;6.20;99.90;;;;;;5091743;28;20126;-70
2022/01/14 04:50:29;;;;;;;35.13;18.60;;;6.20;99.90;;;;;;5080989;28;20376;-70
2022/01/14 04:52:55;;;;;;;31.98;17.98;;;6.20;99.90;;;;;;5081825;28;20081;-70
2022/01/14 04:55:24;;;;;;;33.17;17.85;;;6.20;99.90;;;;;;5089003;28;20080;-70
2022/01/14 04:57:51;;;;;;;34.72;19.13;;;6.10;99.90;;;;;;5088346;28;20075;-70
2022/01/14 05:00:23;;;;;;;35.42;19.80;;;6.10;99.90;;;;;;5068284;28;20041;-70
2022/01/14 05:02:52;;;;;;;41.47;21.05;;;6.10;99.90;;;;;;5082549;28;20092;-70
2022/01/14 05:05:20;;;;;;;34.38;20.42;;;6.10;99.90;;;;;;5090464;28;20071;-70
2022/01/14 05:07:47;;;;;;;36.85;20.95;;;6.10;99.90;;;;;;5070653;28;20492;-69
2022/01/14 05:10:35;;;;;;;34.47;20.48;;;6.00;99.90;;;;;;5085640;28;20040;-69
2022/01/14 05:13:01;;;;;;;43.38;23.20;;;7.40;99.90;;;;;;5093493;28;20110;-70
2022/01/14 05:15:27;;;;;;;37.75;19.20;;;6.00;99.90;;;;;;5087831;28;20043;-70
2022/01/14 05:17:53;;;;;;;39.63;20.92;;;6.00;99.90;;;;;;5092828;28;20039;-70
2022/01/14 05:20:19;;;;;;;38.30;21.05;;;5.90;99.90;;;;;;5088965;28;20032;-70
2022/01/14 05:22:45;;;;;;;39.80;22.00;;;5.90;99.90;;;;;;5086694;28;20043;-70
2022/01/14 05:25:13;;;;;;;36.25;21.13;;;5.90;99.90;;;;;;5084103;28;20069;-70
2022/01/14 05:27:40;;;;;;;40.03;21.63;;;5.90;99.90;;;;;;5086016;28;20038;-70
2022/01/14 05:30:08;;;;;;;41.47;22.20;;;5.90;99.90;;;;;;5070334;28;20058;-70
2022/01/14 05:32:34;;;;;;;45.15;22.50;;;5.90;99.90;;;;;;5085833;28;20534;-70
2022/01/14 05:35:00;;;;;;;32.47;21.00;;;6.60;99.90;;;;;;5085696;28;20066;-70
2022/01/14 05:37:26;;;;;;;38.00;20.45;;;6.00;99.90;;;;;;5073066;28;20035;-70
2022/01/14 05:39:52;;;;;;;36.40;19.27;;;5.90;99.90;;;;;;5070523;28;20048;-69
2022/01/14 05:42:18;;;;;;;35.22;21.33;;;5.90;99.90;;;;;;5087393;28;20054;-69
2022/01/14 05:44:44;;;;;;;43.65;21.33;;;5.90;99.90;;;;;;5071068;28;20051;-69
2022/01/14 05:47:10;;;;;;;34.55;20.77;;;5.90;99.90;;;;;;5085654;28;20043;-69
2022/01/14 05:49:36;;;;;;;37.13;21.15;;;6.10;99.90;;;;;;5074766;28;20039;-69
2022/01/14 05:52:02;;;;;;;39.72;22.15;;;5.80;99.90;;;;;;5079439;28;20069;-69
2022/01/14 05:54:28;;;;;;;40.53;21.30;;;5.90;99.90;;;;;;5085333;28;20035;-70
2022/01/14 05:56:54;;;;;;;38.35;21.48;;;5.80;99.90;;;;;;5072593;28;20054;-69
2022/01/14 05:59:20;;;;;;;34.38;21.13;;;5.90;99.90;;;;;;5061896;28;20048;-69
2022/01/14 06:01:45;;;;;;;37.05;21.15;;;5.90;99.90;;;;;;5084510;28;20118;-69
2022/01/14 06:04:11;;;;;;;40.22;21.10;;;6.20;99.90;;;;;;5079843;28;20461;-69
2022/01/14 06:06:37;;;;;;;40.00;21.67;;;5.90;99.90;;;;;;5072431;28;20035;-69
2022/01/14 06:09:04;;;;;;;43.30;21.88;;;5.90;99.90;;;;;;5071624;28;20582;-69
2022/01/14 06:11:30;;;;;;;37.83;21.52;;;5.90;99.90;;;;;;5084768;28;20044;-69
2022/01/14 06:13:56;;;;;;;36.25;21.55;;;6.50;99.90;;;;;;5070556;28;20040;-69
2022/01/14 06:16:22;;;;;;;35.42;20.20;;;5.90;99.90;;;;;;5084764;28;20035;-69
2022/01/14 06:18:48;;;;;;;34.42;20.50;;;5.90;99.90;;;;;;5099150;28;20471;-69
2022/01/14 06:21:14;;;;;;;38.53;20.13;;;5.90;99.90;;;;;;5072362;28;20090;-69
2022/01/14 06:23:40;;;;;;;35.58;20.67;;;5.90;99.90;;;;;;5083393;28;20036;-69
2022/01/14 06:26:06;;;;;;;35.70;20.45;;;5.90;99.90;;;;;;5076892;28;20036;-69
2022/01/14 06:28:32;;;;;;;37.75;20.20;;;5.90;99.90;;;;;;5063641;28;20403;-69
2022/01/14 06:30:58;;;;;;;42.22;20.90;;;5.90;99.90;;;;;;5078940;28;20032;-69
2022/01/14 06:33:24;;;;;;;39.03;21.80;;;5.90;99.90;;;;;;5087289;28;20080;-69
2022/01/14 06:35:50;;;;;;;37.28;21.98;;;5.90;99.90;;;;;;5078472;28;20040;-69
2022/01/14 06:38:16;;;;;;;35.40;20.52;;;5.80;99.90;;;;;;5078201;28;20123;-69
2022/01/14 06:40:43;;;;;;;36.10;21.88;;;5.80;99.90;;;;;;5087782;28;20049;-69
2022/01/14 06:43:08;;;;;;;33.47;20.88;;;5.90;99.90;;;;;;5090601;28;20050;-69
2022/01/14 06:45:34;;;;;;;36.70;19.42;;;5.80;99.90;;;;;;5072946;28;20048;-69
2022/01/14 06:48:00;;;;;;;35.28;19.58;;;5.80;99.90;;;;;;5071010;28;20032;-69
2022/01/14 06:50:26;;;;;;;32.92;19.40;;;5.90;99.90;;;;;;5073707;28;20035;-69
2022/01/14 06:52:52;;;;;;;37.30;20.25;;;5.90;99.90;;;;;;5090089;28;20055;-69
2022/01/14 06:55:18;;;;;;;37.60;19.63;;;5.90;99.90;;;;;;5058411;28;20052;-69
2022/01/14 06:57:44;;;;;;;40.63;20.70;;;5.80;99.90;;;;;;5087158;28;20059;-69
2022/01/14 07:00:13;;;;;;;34.33;19.67;;;5.80;99.90;;;;;;5078315;28;20066;-69
2022/01/14 07:02:39;;;;;;;36.58;20.45;;;5.80;99.90;;;;;;5082749;28;20043;-68
2022/01/14 07:05:06;;;;;;;31.13;18.17;;;5.90;99.90;;;;;;5069478;28;20109;-69
2022/01/14 07:07:32;;;;;;;34.45;19.58;;;5.90;99.90;;;;;;5083894;28;20449;-69
2022/01/14 07:09:58;;;;;;;34.72;19.40;;;5.80;99.90;;;;;;5081023;28;20097;-69
2022/01/14 07:12:25;;;;;;;32.17;18.95;;;5.90;99.90;;;;;;5065326;28;20039;-69
2022/01/14 07:14:52;;;;;;;37.97;19.40;;;5.90;99.90;;;;;;5069447;28;20073;-69
2022/01/14 07:17:18;;;;;;;36.75;19.05;;;5.90;99.90;;;;;;5061882;28;20040;-69
2022/01/14 07:19:46;;;;;;;41.00;19.45;;;5.90;99.90;;;;;;5060160;28;20389;-69
2022/01/14 07:22:11;;;;;;;34.30;18.50;;;6.40;99.90;;;;;;5084729;28;20035;-69
2022/01/14 07:24:37;;;;;;;32.78;19.35;;;5.90;99.90;;;;;;5081913;28;20042;-69
2022/01/14 07:27:03;;;;;;;29.85;18.75;;;5.90;99.90;;;;;;5052512;28;20043;-70
2022/01/14 07:29:29;;;;;;;33.28;18.50;;;5.90;99.90;;;;;;5081189;28;20039;-70
2022/01/14 07:31:54;;;;;;;29.35;17.80;;;5.90;99.90;;;;;;5055612;28;20035;-70
2022/01/14 07:34:20;;;;;;;33.17;19.27;;;5.90;99.90;;;;;;5054650;28;20046;-70
2022/01/14 07:36:46;;;;;;;33.95;17.52;;;5.90;99.90;;;;;;5072022;28;20048;-69
2022/01/14 07:39:11;;;;;;;35.10;18.48;;;5.90;99.90;;;;;;5087328;28;20438;-69
2022/01/14 07:41:37;;;;;;;40.10;18.35;;;6.60;99.90;;;;;;5090620;28;20455;-69
2022/01/14 07:44:04;;;;;;;37.22;16.90;;;6.20;99.90;;;;;;5069526;28;20552;-69
2022/01/14 07:46:29;;;;;;;37.13;18.13;;;6.00;99.90;;;;;;5084985;28;20042;-69
2022/01/14 07:48:55;;;;;;;31.10;17.65;;;6.00;99.90;;;;;;5073252;28;20595;-69
2022/01/14 07:51:21;;;;;;;32.75;17.60;;;6.00;99.90;;;;;;5071882;28;20044;-69
2022/01/14 07:53:47;;;;;;;29.05;16.85;;;6.00;99.90;;;;;;5083740;28;20057;-69
2022/01/14 07:56:13;;;;;;;27.75;17.00;;;6.00;99.90;;;;;;5076451;28;20043;-69
2022/01/14 07:58:40;;;;;;;27.60;15.70;;;6.00;99.90;;;;;;5059418;28;20070;-69
2022/01/14 08:01:07;;;;;;;32.22;17.40;;;6.10;99.90;;;;;;5068169;28;20156;-69
2022/01/14 08:03:32;;;;;;;29.23;16.27;;;6.00;99.90;;;;;;5084357;28;20081;-70
2022/01/14 08:06:00;;;;;;;26.77;16.33;;;6.00;99.90;;;;;;5084892;28;20078;-70
2022/01/14 08:08:26;;;;;;;33.90;16.05;;;6.10;99.90;;;;;;5059453;28;20399;-70
2022/01/14 08:10:51;;;;;;;32.90;16.35;;;6.10;99.90;;;;;;5082204;28;20032;-70
2022/01/14 08:13:17;;;;;;;23.52;15.68;;;6.10;99.90;;;;;;5085198;28;20051;-70
2022/01/14 08:15:43;;;;;;;27.98;15.57;;;6.30;99.90;;;;;;5073938;28;20063;-70
2022/01/14 08:18:09;;;;;;;32.03;16.40;;;6.10;99.90;;;;;;5082666;28;20047;-70
2022/01/14 08:20:35;;;;;;;31.90;16.17;;;6.10;99.90;;;;;;5086261;28;20044;-70
2022/01/14 08:23:00;;;;;;;30.45;15.68;;;6.10;99.90;;;;;;5083781;28;20046;-70
2022/01/14 08:25:27;;;;;;;26.95;14.68;;;6.10;99.90;;;;;;5074661;28;20132;-70
2022/01/14 08:27:53;;;;;;;32.40;15.65;;;6.10;99.90;;;;;;5075408;28;20181;-70
2022/01/14 08:30:19;;;;;;;29.17;15.73;;;6.20;99.90;;;;;;5084256;28;20118;-70
2022/01/14 08:32:45;;;;;;;32.25;15.10;;;6.20;99.90;;;;;;5087583;28;20035;-70
2022/01/14 08:35:11;;;;;;;30.80;16.05;;;6.20;99.90;;;;;;5090955;28;20404;-70
2022/01/14 08:37:38;;;;;;;28.35;14.68;;;6.20;99.90;;;;;;5077346;28;20387;-70
2022/01/14 08:40:07;;;;;;;25.70;14.82;;;6.20;99.90;;;;;;5067011;28;20123;-69
2022/01/14 08:42:33;;;;;;;26.73;14.98;;;6.20;99.90;;;;;;5075237;28;20170;-69
2022/01/14 08:44:59;;;;;;;27.38;14.15;;;6.20;99.90;;;;;;5070252;28;20470;-69
2022/01/14 08:47:25;;;;;;;32.30;15.02;;;6.30;99.90;;;;;;5073897;28;20138;-70
2022/01/14 08:49:50;;;;;;;30.77;13.85;;;6.30;99.90;;;;;;5088738;28;20409;-70
2022/01/14 08:52:16;;;;;;;23.67;13.60;;;6.30;99.90;;;;;;5059924;28;20517;-70
2022/01/14 08:54:42;;;;;;;25.02;13.18;;;6.60;99.90;;;;;;5074837;28;20115;-70
2022/01/14 08:57:08;;;;;;;30.42;14.38;;;6.30;99.90;;;;;;5079356;28;20062;-70
2022/01/14 08:59:36;;;;;;;26.05;14.02;;;6.30;99.90;;;;;;5076767;28;20126;-70
2022/01/14 09:02:02;;;;;;;29.67;13.35;;;6.40;99.90;;;;;;5081644;28;20040;-69
2022/01/14 09:04:28;;;;;;;28.00;14.68;;;6.40;99.90;;;;;;5083123;28;20046;-69
2022/01/14 09:06:53;;;;;;;27.00;13.75;;;6.60;99.90;;;;;;5092610;28;20032;-69
2022/01/14 09:09:19;;;;;;;27.48;14.40;;;6.50;99.90;;;;;;5088260;28;20173;-69
2022/01/14 09:11:46;;;;;;;27.52;13.50;;;6.50;99.90;;;;;;5088237;28;20042;-69
2022/01/14 09:14:12;;;;;;;25.92;12.75;;;6.70;99.90;;;;;;5087585;28;20036;-69
2022/01/14 09:16:38;;;;;;;26.63;12.65;;;6.70;99.90;;;;;;5084381;28;20040;-69
2022/01/14 09:19:04;;;;;;;24.42;13.23;;;6.60;99.90;;;;;;5093965;28;20475;-69
2022/01/14 09:21:29;;;;;;;21.35;11.70;;;6.60;99.90;;;;;;5083763;28;20079;-69
2022/01/14 09:24:03;;;;;;;22.63;11.27;;;6.60;99.90;;;;;;5090575;28;20488;-69
2022/01/14 09:26:33;;;;;;;25.30;12.07;;;6.70;99.90;;;;;;5084944;28;20518;-69
2022/01/14 09:29:00;;;;;;;24.88;11.90;;;6.70;99.90;;;;;;5084800;28;20035;-69
2022/01/14 09:31:25;;;;;;;20.98;10.88;;;6.90;99.90;;;;;;5074019;28;20038;-69
2022/01/14 09:33:51;;;;;;;29.08;12.82;;;6.70;99.90;;;;;;5087030;28;20040;-69
2022/01/14 09:36:17;;;;;;;20.58;11.23;;;6.80;99.90;;;;;;5086347;28;20070;-69
2022/01/14 09:38:43;;;;;;;22.15;11.50;;;7.20;99.90;;;;;;5082561;28;20043;-69
2022/01/14 09:41:08;;;;;;;20.25;9.82;;;6.80;99.90;;;;;;5084843;28;20043;-69
2022/01/14 09:43:38;;;;;;;28.95;11.43;;;6.80;99.90;;;;;;5071639;28;20069;-69
2022/01/14 09:46:06;;;;;;;18.75;9.10;;;6.90;99.90;;;;;;5082773;28;20403;-69
2022/01/14 09:48:33;;;;;;;21.95;9.15;;;6.90;99.90;;;;;;5070211;28;20054;-69
2022/01/14 09:50:59;;;;;;;20.02;9.77;;;7.00;99.90;;;;;;5067898;28;20070;-69
2022/01/14 09:53:29;;;;;;;18.80;9.77;;;7.80;99.90;;;;;;5085831;28;20483;-68
2022/01/14 09:55:55;;;;;;;21.30;9.55;;;6.90;99.90;;;;;;5078545;28;20040;-69
2022/01/14 09:58:26;;;;;;;23.45;8.50;;;7.50;99.90;;;;;;5068817;28;20105;-69
2022/01/14 10:01:13;;;;;;;22.40;8.85;;;7.00;99.90;;;;;;5085396;28;20047;-69
2022/01/14 10:03:53;;;;;;;20.92;8.88;;;7.10;99.90;;;;;;5086618;28;20172;-69
2022/01/14 10:06:38;;;;;;;18.20;8.15;;;7.10;99.90;;;;;;5083821;28;20167;-69
2022/01/14 10:09:09;;;;;;;15.68;8.02;;;7.10;99.90;;;;;;5081965;28;20031;-69
2022/01/14 10:11:36;;;;;;;21.95;8.18;;;7.10;99.90;;;;;;5090245;28;20040;-69
2022/01/14 10:14:15;;;;;;;20.17;8.02;;;7.20;99.90;;;;;;5090779;28;20418;-69
2022/01/14 10:16:41;;;;;;;12.65;7.75;;;7.20;99.90;;;;;;5087221;28;20036;-69
2022/01/14 10:19:21;;;;;;;15.05;7.10;;;7.20;99.90;;;;;;5089647;28;20047;-69
2022/01/14 10:21:47;;;;;;;17.17;7.00;;;7.30;99.90;;;;;;5083900;28;20044;-69
2022/01/14 10:24:13;;;;;;;13.55;6.40;;;7.30;99.90;;;;;;5085311;28;20503;-69
2022/01/14 10:26:57;;;;;;;12.00;6.50;;;7.30;99.90;;;;;;5050321;28;20066;-69
2022/01/14 10:29:38;;;;;;;16.98;6.88;;;7.80;99.90;;;;;;5090165;28;20032;-69
2022/01/14 10:32:06;;;;;;;11.88;6.25;;;7.40;99.90;;;;;;5066663;28;20035;-69
2022/01/14 10:34:33;;;;;;;14.25;5.88;;;7.40;99.90;;;;;;5087275;28;20403;-69
2022/01/14 10:37:14;;;;;;;16.15;7.03;;;7.40;99.90;;;;;;5086290;28;20043;-69
2022/01/14 10:39:46;;;;;;;11.95;5.38;;;7.70;99.90;;;;;;5072702;28;20047;-69
2022/01/14 10:42:42;;;;;;;14.32;5.05;;;7.40;99.90;;;;;;5090556;28;20039;-69
2022/01/14 10:45:23;;;;;;;12.73;6.32;;;7.40;99.90;;;;;;5079964;28;20048;-69
2022/01/14 10:47:59;;;;;;;12.98;4.90;;;7.40;99.90;;;;;;5075173;28;20039;-69
2022/01/14 10:50:33;;;;;;;12.50;5.22;;;7.40;99.90;;;;;;5089731;28;20119;-69
2022/01/14 10:53:01;;;;;;;13.85;5.80;;;7.40;99.90;;;;;;5081523;28;20027;-69
2022/01/14 10:55:34;;;;;;;10.02;5.15;;;7.40;99.90;;;;;;5071372;28;20116;-69
2022/01/14 10:58:06;;;;;;;17.33;5.50;;;7.40;99.90;;;;;;5083229;28;20063;-69
2022/01/14 11:00:43;;;;;;;15.60;6.30;;;7.40;99.90;;;;;;5083048;28;20062;-69
2022/01/14 11:03:10;;;;;;;16.23;6.28;;;7.40;99.90;;;;;;5084089;28;20040;-69
2022/01/14 11:05:36;;;;;;;14.30;6.05;;;7.50;99.90;;;;;;5070469;28;20165;-69
2022/01/14 11:08:03;;;;;;;21.20;5.68;;;7.40;99.90;;;;;;5085996;28;20032;-69
2022/01/14 11:10:35;;;;;;;12.55;5.25;;;7.40;99.90;;;;;;5070038;28;20118;-69
2022/01/14 11:13:02;;;;;;;17.08;6.13;;;7.30;99.90;;;;;;5085988;28;20092;-69
2022/01/14 11:15:31;;;;;;;14.18;5.75;;;7.40;99.90;;;;;;5088204;28;20129;-69
2022/01/14 11:18:00;;;;;;;12.88;5.45;;;7.70;99.90;;;;;;5084320;28;20550;-69
2022/01/14 11:20:31;;;;;;;18.02;5.40;;;7.40;99.90;;;;;;5072525;28;20050;-69
2022/01/14 11:23:15;;;;;;;14.40;5.72;;;7.40;99.90;;;;;;5068596;28;20050;-69
2022/01/14 11:25:46;;;;;;;14.02;5.20;;;7.40;99.90;;;;;;5073398;28;20131;-69
2022/01/14 11:28:17;;;;;;;15.95;5.40;;;7.40;99.90;;;;;;5085388;28;20064;-69
2022/01/14 11:30:43;;;;;;;13.80;6.07;;;7.40;99.90;;;;;;5093743;28;20503;-69
2022/01/14 11:33:09;;;;;;;13.60;5.13;;;7.40;99.90;;;;;;5090339;28;20070;-69
2022/01/14 11:35:37;;;;;;;17.88;5.82;;;7.80;99.90;;;;;;5082329;28;20040;-69
2022/01/14 11:38:24;;;;;;;13.32;4.85;;;7.50;99.90;;;;;;5072785;28;20077;-69
2022/01/14 11:40:50;;;;;;;11.00;4.70;;;7.50;99.90;;;;;;5091326;28;20072;-69
2022/01/14 11:43:54;;;;;;;14.00;5.22;;;7.60;99.90;;;;;;5070836;28;20031;-69
2022/01/14 11:46:31;;;;;;;12.35;4.47;;;7.50;99.90;;;;;;5028474;28;20467;-69
2022/01/14 11:48:58;;;;;;;13.43;3.92;;;7.50;99.90;;;;;;5083485;28;20063;-69
2022/01/14 11:51:24;;;;;;;15.27;5.07;;;7.50;99.90;;;;;;5084190;28;20043;-69
2022/01/14 11:54:08;;;;;;;11.38;3.83;;;7.50;99.90;;;;;;5089847;28;23074;-69
2022/01/14 11:56:35;;;;;;;13.50;4.45;;;7.60;99.90;;;;;;5081274;28;20046;-69
2022/01/14 11:59:22;;;;;;;13.10;4.15;;;7.60;99.90;;;;;;5096412;27;20430;-69
2022/01/14 12:01:52;;;;;;;16.80;4.25;;;7.60;99.90;;;;;;5080115;28;20039;-69
2022/01/14 12:04:19;;;;;;;12.82;4.13;;;7.60;99.90;;;;;;5071056;28;20452;-69
2022/01/14 12:06:50;;;;;;;14.43;3.78;;;7.60;99.90;;;;;;5085606;28;20098;-69
2022/01/14 12:09:24;;;;;;;13.52;3.92;;;7.60;99.90;;;;;;5082508;28;20082;-69
2022/01/14 12:12:30;;;;;;;13.32;3.97;;;7.60;99.90;;;;;;5069538;28;20392;-71
2022/01/14 12:14:59;;;;;;;10.95;3.97;;;7.60;99.90;;;;;;5085144;28;20078;-70
2022/01/14 12:17:33;;;;;;;15.52;4.15;;;7.60;99.90;;;;;;5091916;28;20039;-70
2022/01/14 12:20:15;;;;;;;14.20;3.83;;;7.60;99.90;;;;;;5087857;28;20047;-69
2022/01/14 12:22:42;;;;;;;13.38;3.95;;;7.60;99.90;;;;;;5091051;28;20082;-69
2022/01/14 12:25:09;;;;;;;14.90;3.78;;;7.60;99.90;;;;;;5093434;28;20032;-69
2022/01/14 12:27:44;;;;;;;13.85;4.15;;;7.60;99.90;;;;;;5065600;28;20043;-69
2022/01/14 12:30:15;;;;;;;12.10;4.20;;;7.60;99.90;;;;;;5086106;28;20487;-69
2022/01/14 12:32:42;;;;;;;13.93;4.05;;;7.60;99.90;;;;;;5088411;28;20067;-69
2022/01/14 12:35:27;;;;;;;11.48;5.07;;;7.60;99.90;;;;;;5089513;28;20055;-69
2022/01/14 12:37:55;;;;;;;17.85;4.75;;;7.60;99.90;;;;;;5083827;28;20075;-69
2022/01/14 12:40:28;;;;;;;15.43;5.03;;;7.60;99.90;;;;;;5087104;28;20035;-69
2022/01/14 12:43:04;;;;;;;11.98;4.05;;;7.60;99.90;;;;;;5078552;28;20039;-69
2022/01/14 12:45:33;;;;;;;10.45;4.00;;;7.60;99.90;;;;;;5090426;28;20118;-69
2022/01/14 12:48:39;;;;;;;12.30;4.32;;;7.60;99.90;;;;;;5083278;28;20036;-69
2022/01/14 12:51:19;;;;;;;16.90;4.80;;;7.60;99.90;;;;;;5081075;28;20399;-69
2022/01/14 12:53:50;;;;;;;14.55;4.32;;;7.60;99.90;;;;;;5089786;28;20062;-69
2022/01/14 12:56:19;;;;;;;12.95;4.32;;;7.60;99.90;;;;;;5084003;28;20050;-69
2022/01/14 12:58:59;;;;;;;13.73;4.50;;;7.60;99.90;;;;;;5075067;28;20053;-69
2022/01/14 13:01:34;;;;;;;16.30;5.10;;;7.60;99.90;;;;;;5085871;28;20575;-69
2022/01/14 13:04:08;;;;;;;17.20;5.32;;;7.60;99.90;;;;;;5073522;28;20040;-69
2022/01/14 13:06:53;;;;;;;11.77;5.15;;;7.60;99.90;;;;;;5081644;28;20523;-69
2022/01/14 13:09:24;;;;;;;17.10;5.97;;;7.60;99.90;;;;;;5078901;28;20082;-69
2022/01/14 13:12:04;;;;;;;13.02;5.00;;;8.10;99.90;;;;;;5068635;28;20036;-69
2022/01/14 13:14:41;;;;;;;18.52;5.53;;;7.60;99.90;;;;;;5083106;28;20040;-69